Time;durP1;ratioP1;P1;durP2;ratioP2;P2;SDS_P1;SDS_P2;PMS_P1;PMS_P2;Temp;Humidity;BMP_temperature;BMP_pressure;BME280_temperature;BME280_humidity;BME280_pressure;Samples;Min_cycle;Max_cycle;Signal;HPM_P1;HPM_P2
2021/10/11 00:00:43;;;;;;;2.85;2.67;;;;;;;3.27;71.93;101395.19;4840183;29;20061;-80
2021/10/11 00:03:09;;;;;;;3.03;2.92;;;;;;;3.27;71.86;101390.03;4857042;29;20403;-79
2021/10/11 00:05:35;;;;;;;3.10;3.00;;;;;;;3.28;71.93;101399.47;4833902;29;20054;-80
2021/10/11 00:08:00;;;;;;;5.00;4.60;;;;;;;3.29;71.74;101399.47;4843530;29;20064;-81
2021/10/11 00:10:26;;;;;;;4.63;4.20;;;;;;;3.15;71.90;101390.88;4841796;29;20076;-80
2021/10/11 00:12:53;;;;;;;3.55;2.90;;;;;;;3.17;72.08;101394.31;4840222;29;20233;-82
2021/10/11 00:15:20;;;;;;;7.45;5.10;;;;;;;3.25;71.92;101395.16;4840894;29;20050;-82
2021/10/11 00:17:46;;;;;;;5.63;3.55;;;;;;;3.20;72.25;101386.59;4839476;29;20118;-80
2021/10/11 00:20:12;;;;;;;3.53;2.85;;;;;;;3.21;72.14;101384.88;4839497;29;20550;-82
2021/10/11 00:22:38;;;;;;;3.88;3.53;;;;;;;3.19;72.21;101386.56;4809103;29;20096;-81
2021/10/11 00:25:04;;;;;;;8.27;4.40;;;;;;;3.11;72.48;101383.97;4839394;29;20513;-82
2021/10/11 00:27:33;;;;;;;3.58;3.35;;;;;;;3.06;72.68;101394.31;4840168;29;20060;-81
2021/10/11 00:29:59;;;;;;;2.60;2.50;;;;;;;3.02;72.96;101384.84;4840591;29;20062;-82
2021/10/11 00:32:25;;;;;;;6.80;6.00;;;;;;;2.99;73.27;101391.72;4839598;29;20092;-81
2021/10/11 00:34:51;;;;;;;4.18;3.97;;;;;;;2.96;73.79;101387.44;4840398;29;20402;-82
2021/10/11 00:37:17;;;;;;;10.48;4.25;;;;;;;2.93;73.55;101381.41;4839403;29;20095;-81
2021/10/11 00:39:43;;;;;;;3.15;2.95;;;;;;;2.97;73.20;101378.84;4823986;29;20429;-81
2021/10/11 00:42:09;;;;;;;5.50;3.55;;;;;;;2.97;72.99;101389.16;4808836;29;20149;-82
2021/10/11 00:44:35;;;;;;;3.42;3.22;;;;;;;2.96;73.17;101387.44;4840335;29;20064;-82
2021/10/11 00:47:01;;;;;;;13.88;5.43;;;;;;;2.93;72.97;101382.28;4840128;29;20425;-82
2021/10/11 00:49:27;;;;;;;5.25;4.85;;;;;;;2.85;73.51;101372.78;4840099;29;20580;-81
2021/10/11 00:51:53;;;;;;;3.33;3.10;;;;;;;2.86;73.70;101383.13;4824080;29;20054;-82
2021/10/11 00:54:19;;;;;;;4.28;3.90;;;;;;;2.76;74.17;101373.66;4839070;29;20058;-81
2021/10/11 00:56:45;;;;;;;2.58;2.47;;;;;;;2.83;73.72;101382.25;4839204;29;20122;-81
2021/10/11 00:59:11;;;;;;;2.60;2.50;;;;;;;2.77;74.11;101374.50;4839016;29;20053;-82
2021/10/11 01:01:37;;;;;;;7.15;2.97;;;;;;;2.76;74.14;101372.78;4839184;29;20572;-82
2021/10/11 01:04:05;;;;;;;3.55;3.35;;;;;;;2.71;74.23;101375.38;4840451;29;20053;-82
2021/10/11 01:06:36;;;;;;;4.07;3.78;;;;;;;2.65;74.54;101370.19;4840426;29;20477;-84
2021/10/11 01:09:04;;;;;;;2.95;2.85;;;;;;;2.60;74.65;101362.47;4838896;29;20650;-84
2021/10/11 01:11:30;;;;;;;4.03;3.78;;;;;;;2.55;74.57;101363.31;4838725;29;20053;-82
2021/10/11 01:13:56;;;;;;;6.28;4.30;;;;;;;2.60;74.08;101366.75;4824045;29;20754;-85
2021/10/11 01:16:21;;;;;;;6.53;3.35;;;;;;;2.51;74.57;101366.75;4840167;29;20061;-80
2021/10/11 01:18:47;;;;;;;3.38;3.28;;;;;;;2.37;74.60;101342.66;4839470;29;20435;-80
2021/10/11 01:21:13;;;;;;;3.42;3.22;;;;;;;2.50;74.42;101370.16;4839778;29;20046;-82
2021/10/11 01:23:39;;;;;;;3.22;3.03;;;;;;;2.45;74.51;101369.31;4808134;29;20050;-82
2021/10/11 01:26:05;;;;;;;3.08;2.88;;;;;;;2.38;74.96;101368.44;4823726;29;20053;-81
2021/10/11 01:28:31;;;;;;;5.75;5.05;;;;;;;2.38;75.25;101375.28;4838492;29;20054;-80
2021/10/11 01:30:57;;;;;;;3.42;3.22;;;;;;;2.36;75.08;101367.53;4823794;29;20555;-82
2021/10/11 01:33:23;;;;;;;3.17;3.03;;;;;;;2.35;75.41;101367.56;4840566;29;20058;-82
2021/10/11 01:35:49;;;;;;;4.45;4.05;;;;;;;2.29;75.71;101362.41;4840468;29;20057;-82
2021/10/11 01:38:15;;;;;;;4.63;4.28;;;;;;;2.27;75.63;101353.78;4823800;29;20709;-80
2021/10/11 01:40:41;;;;;;;5.15;4.85;;;;;;;2.21;75.68;101352.06;4823683;29;20468;-82
2021/10/11 01:43:08;;;;;;;3.60;3.40;;;;;;;2.26;75.61;101359.81;4840122;29;20053;-81
2021/10/11 01:45:34;;;;;;;3.72;3.42;;;;;;;2.17;75.72;101349.44;4839582;29;20053;-81
2021/10/11 01:48:01;;;;;;;4.88;4.45;;;;;;;2.19;75.91;101352.91;4823309;29;20054;-81
2021/10/11 01:50:27;;;;;;;3.40;3.25;;;;;;;2.20;75.69;101350.31;4839332;29;20066;-82
2021/10/11 01:52:53;;;;;;;6.40;4.40;;;;;;;2.12;76.00;101352.03;4822995;29;20058;-80
2021/10/11 01:55:19;;;;;;;4.50;4.10;;;;;;;2.07;76.24;101354.56;4838481;29;20053;-83
2021/10/11 01:57:46;;;;;;;4.32;4.05;;;;;;;2.02;76.11;101356.28;4838041;29;20161;-82
2021/10/11 02:00:12;;;;;;;3.85;3.60;;;;;;;2.01;76.29;101349.41;4823397;29;20141;-82
2021/10/11 02:02:40;;;;;;;2.95;2.85;;;;;;;2.03;76.03;101350.25;4839579;29;20049;-82
2021/10/11 02:05:06;;;;;;;5.45;3.08;;;;;;;2.05;75.74;101346.00;4839872;29;20054;-83
2021/10/11 02:07:32;;;;;;;6.25;5.63;;;;;;;2.07;75.81;101344.28;4839777;29;20129;-83
2021/10/11 02:09:58;;;;;;;4.35;4.15;;;;;;;2.12;75.26;101343.44;4839078;29;20140;-82
2021/10/11 02:12:24;;;;;;;4.07;3.80;;;;;;;2.03;75.65;101342.53;4841915;29;20057;-82
2021/10/11 02:14:50;;;;;;;4.80;4.15;;;;;;;2.05;75.51;101342.56;4839599;29;20054;-82
2021/10/11 02:17:16;;;;;;;7.00;4.20;;;;;;;2.03;75.51;101345.13;4825072;29;20046;-83
2021/10/11 02:19:42;;;;;;;3.65;3.45;;;;;;;1.95;75.67;101344.25;4841017;29;20064;-82
2021/10/11 02:22:08;;;;;;;16.15;2.92;;;;;;;1.92;75.78;101341.66;4839757;29;20099;-82
2021/10/11 02:24:34;;;;;;;4.40;4.00;;;;;;;1.88;75.74;101339.03;4839443;29;20085;-83
2021/10/11 02:27:00;;;;;;;4.07;3.78;;;;;;;1.90;75.69;101343.34;4838417;29;20049;-82
2021/10/11 02:29:27;;;;;;;8.70;3.05;;;;;;;1.83;76.13;101338.19;4839465;29;20624;-82
2021/10/11 02:31:54;;;;;;;2.67;2.47;;;;;;;1.78;76.31;101339.84;4839196;29;20050;-81
2021/10/11 02:34:20;;;;;;;3.03;2.88;;;;;;;1.70;77.04;101332.13;4838031;29;20050;-81
2021/10/11 02:36:45;;;;;;;4.72;3.70;;;;;;;1.67;77.06;101341.53;4823795;29;20065;-81
2021/10/11 02:39:12;;;;;;;4.35;4.03;;;;;;;1.60;77.42;101330.34;4839136;29;20418;-81
2021/10/11 02:41:38;;;;;;;5.07;3.60;;;;;;;1.52;77.93;101337.16;4838787;29;20061;-81
2021/10/11 02:44:04;;;;;;;5.03;4.70;;;;;;;1.46;77.86;101329.41;4838273;29;20460;-80
2021/10/11 02:46:30;;;;;;;5.53;2.72;;;;;;;1.45;78.04;101335.38;4807702;29;20057;-80
2021/10/11 02:48:56;;;;;;;3.63;3.33;;;;;;;1.36;78.47;101330.19;4844946;29;20415;-80
2021/10/11 02:51:21;;;;;;;4.53;2.95;;;;;;;1.34;79.22;101332.75;4848388;29;20053;-82
2021/10/11 02:53:49;;;;;;;3.15;3.03;;;;;;;1.28;79.36;101324.13;4844102;29;20480;-80
2021/10/11 02:56:18;;;;;;;5.80;4.03;;;;;;;1.32;78.92;101325.88;4860731;29;20057;-81
2021/10/11 02:58:45;;;;;;;6.80;3.47;;;;;;;1.32;78.69;101321.59;4844286;29;20057;-82
2021/10/11 03:01:11;;;;;;;3.75;3.55;;;;;;;1.37;78.36;101324.22;4836374;29;20123;-82
2021/10/11 03:03:37;;;;;;;3.08;2.83;;;;;;;1.35;78.29;101329.31;4843957;29;20061;-82
2021/10/11 03:06:03;;;;;;;3.13;3.03;;;;;;;1.39;77.87;101322.50;4842698;29;20092;-82
2021/10/11 03:08:31;;;;;;;4.38;3.97;;;;;;;1.36;77.79;101314.75;4846640;29;20114;-82
2021/10/11 03:10:58;;;;;;;2.35;2.25;;;;;;;1.35;77.81;101315.59;4843568;29;20074;-81
2021/10/11 03:13:25;;;;;;;6.40;4.38;;;;;;;1.35;77.90;101313.03;4842067;29;20137;-81
2021/10/11 03:15:50;;;;;;;3.17;2.92;;;;;;;1.39;77.79;101314.78;4841880;29;20449;-81
2021/10/11 03:18:17;;;;;;;4.80;3.67;;;;;;;1.38;77.72;101320.75;4838069;29;20058;-83
2021/10/11 03:20:43;;;;;;;3.25;3.15;;;;;;;1.36;77.95;101315.63;4842197;29;20106;-82
2021/10/11 03:23:09;;;;;;;17.60;6.50;;;;;;;1.35;77.85;101313.03;4843027;29;20045;-81
2021/10/11 03:25:35;;;;;;;5.32;4.93;;;;;;;1.28;78.55;101311.25;4825940;29;20054;-80
2021/10/11 03:28:01;;;;;;;2.65;2.55;;;;;;;1.20;78.67;101305.22;4825248;29;20520;-81
2021/10/11 03:30:27;;;;;;;3.55;3.35;;;;;;;1.18;78.85;101315.50;4841835;29;20118;-80
2021/10/11 03:32:53;;;;;;;3.50;3.30;;;;;;;1.14;78.66;101307.75;4826032;29;20103;-82
2021/10/11 03:35:20;;;;;;;3.05;2.92;;;;;;;1.09;78.89;101299.13;4843050;29;20049;-83
2021/10/11 03:37:46;;;;;;;4.85;4.43;;;;;;;1.17;78.63;101308.66;4855461;29;20064;-81
2021/10/11 03:40:12;;;;;;;4.25;3.95;;;;;;;1.20;78.70;101302.66;4845229;29;20057;-82
2021/10/11 03:42:38;;;;;;;3.65;3.33;;;;;;;1.28;77.92;101295.84;4845335;29;20045;-83
2021/10/11 03:45:05;;;;;;;4.40;4.10;;;;;;;1.33;77.83;101299.31;4840100;29;20081;-82
2021/10/11 03:47:31;;;;;;;3.97;3.78;;;;;;;1.29;77.87;101293.28;4860755;29;20109;-84
2021/10/11 03:49:57;;;;;;;1.98;1.98;;;;;;;1.28;77.79;101291.56;4828865;29;20061;-82
2021/10/11 03:52:23;;;;;;;4.55;4.35;;;;;;;1.28;77.75;101290.69;4843619;29;20652;-83
2021/10/11 03:54:48;;;;;;;3.42;3.13;;;;;;;1.25;77.55;101300.97;4860489;29;20060;-82
2021/10/11 03:57:14;;;;;;;3.50;3.40;;;;;;;1.24;77.71;101307.84;4860915;29;20049;-82
2021/10/11 03:59:40;;;;;;;2.70;2.45;;;;;;;1.23;77.93;101307.81;4847220;29;20098;-81
2021/10/11 04:02:07;;;;;;;2.60;2.50;;;;;;;1.25;77.85;101313.81;4844297;29;20046;-81
2021/10/11 04:04:34;;;;;;;3.30;3.10;;;;;;;1.20;78.02;101307.81;4856113;29;20093;-81
2021/10/11 04:07:07;;;;;;;5.47;4.95;;;;;;;1.21;78.44;101309.53;4837165;29;20142;-82
2021/10/11 04:09:34;;;;;;;9.48;4.68;;;;;;;1.20;78.01;101310.38;4829003;29;20085;-81
2021/10/11 04:12:06;;;;;;;4.47;4.13;;;;;;;1.20;77.88;101298.38;4829903;29;20654;-82
2021/10/11 04:14:33;;;;;;;14.23;4.05;;;;;;;1.82;75.95;101305.56;4827780;29;20061;-83
2021/10/11 04:16:59;;;;;;;2.92;2.75;;;;;;;2.52;73.05;101304.03;4859333;29;20057;-82
2021/10/11 04:19:25;;;;;;;6.18;3.25;;;;;;;2.99;70.71;101299.72;4859620;29;20049;-82
2021/10/11 04:21:51;;;;;;;24.20;5.70;;;;;;;3.33;69.08;101295.38;4859605;29;20189;-83
2021/10/11 04:24:17;;;;;;;3.17;2.85;;;;;;;3.49;68.08;101293.63;4843396;29;20068;-82
2021/10/11 04:26:43;;;;;;;3.47;3.28;;;;;;;3.81;66.67;101299.53;4843509;29;20516;-82
2021/10/11 04:29:09;;;;;;;3.13;3.03;;;;;;;3.95;65.92;101290.00;4842610;29;20092;-81
2021/10/11 04:31:37;;;;;;;2.97;2.88;;;;;;;4.08;65.80;101291.66;4859317;29;20054;-82
2021/10/11 04:34:03;;;;;;;4.53;4.18;;;;;;;4.33;64.32;101286.31;4860616;29;20101;-82
2021/10/11 04:36:28;;;;;;;6.80;4.63;;;;;;;4.51;63.50;101283.63;4827381;29;20672;-83
2021/10/11 04:38:54;;;;;;;3.58;3.28;;;;;;;4.79;62.40;101289.44;4842010;29;20086;-83
2021/10/11 04:41:20;;;;;;;4.43;3.47;;;;;;;4.90;62.16;101287.63;4843365;29;20209;-83
2021/10/11 04:43:46;;;;;;;3.22;3.13;;;;;;;4.78;61.93;101287.75;4859797;29;20194;-82
2021/10/11 04:46:12;;;;;;;6.15;4.63;;;;;;;5.00;61.92;101287.53;4843066;29;20432;-83
2021/10/11 04:48:38;;;;;;;4.82;4.47;;;;;;;5.25;60.33;101276.06;4843616;29;20041;-83
2021/10/11 04:51:04;;;;;;;4.95;4.63;;;;;;;5.46;59.09;101285.34;4859570;29;20094;-83
2021/10/11 04:53:30;;;;;;;6.95;6.32;;;;;;;5.50;59.58;101275.78;4843142;29;20108;-84
2021/10/11 04:55:56;;;;;;;3.92;3.72;;;;;;;5.33;59.96;101278.59;4859183;29;20042;-83
2021/10/11 04:58:22;;;;;;;6.53;3.55;;;;;;;5.28;59.36;101277.75;4859521;29;20057;-84
2021/10/11 05:00:48;;;;;;;3.10;3.00;;;;;;;5.03;60.48;101274.56;4841607;29;20076;-80
2021/10/11 05:03:14;;;;;;;4.22;3.92;;;;;;;5.46;58.88;101285.34;4843100;29;20520;-81
2021/10/11 05:05:40;;;;;;;5.78;4.07;;;;;;;6.44;56.20;101272.00;4858733;29;20097;-80
2021/10/11 05:08:06;;;;;;;3.42;2.67;;;;;;;5.92;56.38;101275.31;4837520;29;20109;-82
2021/10/11 05:10:31;;;;;;;4.05;3.70;;;;;;;5.75;57.93;101277.22;4856471;29;20507;-82
2021/10/11 05:12:58;;;;;;;4.43;3.95;;;;;;;5.56;58.13;101280.91;4839771;29;20132;-81
2021/10/11 05:15:24;;;;;;;8.20;3.78;;;;;;;5.46;58.29;101279.31;4840468;29;20105;-81
2021/10/11 05:17:50;;;;;;;4.72;4.38;;;;;;;6.57;55.57;101274.38;4855615;29;20145;-81
2021/10/11 05:20:16;;;;;;;6.22;5.18;;;;;;;6.75;54.86;101273.22;4840656;29;20057;-82
2021/10/11 05:22:42;;;;;;;8.68;5.38;;;;;;;6.98;54.26;101268.50;4841708;29;20431;-82
2021/10/11 05:25:09;;;;;;;7.95;5.30;;;;;;;6.64;54.82;101272.53;4855666;29;20057;-85
2021/10/11 05:27:34;;;;;;;14.88;5.15;;;;;;;7.19;53.16;101262.94;4858267;29;20114;-84
2021/10/11 05:30:01;;;;;;;8.70;5.40;;;;;;;7.46;52.58;101271.09;4841807;29;20056;-82
2021/10/11 05:32:30;;;;;;;8.00;5.30;;;;;;;7.08;53.90;101264.00;4842475;29;20057;-83
2021/10/11 05:34:58;;;;;;;11.45;5.53;;;;;;;7.20;53.41;101268.94;4858498;29;20041;-83
2021/10/11 05:37:25;;;;;;;6.50;4.82;;;;;;;7.52;52.90;101270.97;4822899;29;20049;-84
2021/10/11 05:39:51;;;;;;;10.63;4.90;;;;;;;6.81;54.23;101270.50;4855880;29;20168;-81
2021/10/11 05:42:17;;;;;;;5.57;4.93;;;;;;;6.68;54.57;101259.47;4841793;29;20132;-82
2021/10/11 05:44:44;;;;;;;10.18;4.95;;;;;;;7.08;53.75;101259.66;4857396;29;20078;-83
2021/10/11 05:47:11;;;;;;;6.57;5.90;;;;;;;6.95;54.13;101258.16;4825532;29;20056;-82
2021/10/11 05:49:37;;;;;;;4.53;4.00;;;;;;;7.62;52.38;101269.91;4835460;29;20065;-81
2021/10/11 05:52:03;;;;;;;5.45;5.15;;;;;;;8.18;51.28;101269.53;4857695;29;20049;-81
2021/10/11 05:54:29;;;;;;;5.68;4.60;;;;;;;8.48;50.32;101261.94;4856982;29;20148;-81
2021/10/11 05:56:55;;;;;;;4.63;4.22;;;;;;;8.17;51.50;101261.78;4838121;29;20053;-79
2021/10/11 05:59:28;;;;;;;7.30;5.35;;;;;;;8.20;50.90;101248.69;4851044;29;20065;-80
2021/10/11 06:01:56;;;;;;;6.95;4.20;;;;;;;8.21;51.60;101264.25;4844898;29;20049;-81
2021/10/11 06:04:22;;;;;;;7.90;5.03;;;;;;;8.98;48.94;101252.91;4858508;29;20435;-82
2021/10/11 06:06:48;;;;;;;27.73;5.18;;;;;;;8.52;50.56;101250.56;4860367;29;20047;-81
2021/10/11 06:09:15;;;;;;;9.43;5.03;;;;;;;8.30;51.44;101253.69;4858777;29;20065;-82
2021/10/11 06:11:42;;;;;;;10.32;4.68;;;;;;;8.70;51.21;101250.16;4841483;29;20058;-81
2021/10/11 06:14:08;;;;;;;6.13;4.97;;;;;;;8.33;52.16;101243.22;4858438;29;20085;-82
2021/10/11 06:16:33;;;;;;;18.63;6.82;;;;;;;7.92;53.39;101256.25;4858094;29;20433;-82
2021/10/11 06:18:59;;;;;;;4.60;3.90;;;;;;;8.38;52.03;101247.47;4838345;29;20049;-82
2021/10/11 06:21:26;;;;;;;4.28;3.97;;;;;;;8.99;49.97;101249.41;4856199;29;20057;-84
2021/10/11 06:23:52;;;;;;;10.13;5.30;;;;;;;8.98;49.51;101253.75;4830592;29;20628;-81
2021/10/11 06:26:18;;;;;;;7.50;4.10;;;;;;;9.55;49.32;101237.44;4842472;29;20126;-82
2021/10/11 06:28:44;;;;;;;7.50;5.68;;;;;;;9.62;49.18;101244.19;4842796;29;20057;-80
2021/10/11 06:31:32;;;;;;;16.27;5.40;;;;;;;9.64;49.47;101240.63;4843404;29;20060;-82
2021/10/11 06:33:58;;;;;;;11.38;4.43;;;;;;;9.69;49.38;101238.75;4853866;29;20089;-87
2021/10/11 06:36:26;;;;;;;4.90;4.50;;;;;;;9.06;51.33;101233.59;4851695;29;20113;-86
2021/10/11 06:38:52;;;;;;;4.70;4.30;;;;;;;9.73;49.36;101229.06;4852943;29;20069;-86
2021/10/11 06:41:18;;;;;;;28.55;4.78;;;;;;;10.25;48.61;101217.94;4849922;29;20611;-86
2021/10/11 06:43:44;;;;;;;4.60;4.30;;;;;;;10.49;48.31;101226.75;4830756;29;20079;-85
2021/10/11 06:46:10;;;;;;;5.15;4.82;;;;;;;10.22;48.82;101223.25;4833176;29;20156;-83
2021/10/11 06:48:36;;;;;;;6.25;5.28;;;;;;;10.37;48.35;101221.00;4833287;29;20062;-86
2021/10/11 06:51:08;;;;;;;4.50;4.10;;;;;;;10.34;49.02;101218.50;4833995;29;20054;-85
2021/10/11 06:53:35;;;;;;;4.70;4.28;;;;;;;10.67;48.50;101211.31;4823074;29;20122;-80
2021/10/11 06:56:01;;;;;;;7.95;5.85;;;;;;;10.90;46.77;101213.16;4821990;29;20103;-79
2021/10/11 06:58:27;;;;;;;11.63;6.35;;;;;;;10.99;46.75;101208.47;4807579;29;20131;-82
2021/10/11 07:00:53;;;;;;;6.25;5.68;;;;;;;10.82;47.67;101199.50;4822814;29;20062;-80
2021/10/11 07:03:24;;;;;;;5.05;4.65;;;;;;;11.41;46.10;101200.00;4808384;29;20073;-79
2021/10/11 07:05:57;;;;;;;5.30;4.80;;;;;;;11.37;46.58;101199.28;4822424;29;20074;-79
2021/10/11 07:08:23;;;;;;;16.48;7.22;;;;;;;11.55;45.81;101196.91;4811356;29;20057;-80
2021/10/11 07:10:53;;;;;;;7.35;4.72;;;;;;;11.68;45.73;101200.75;4840213;29;20521;-81
2021/10/11 07:13:19;;;;;;;6.93;5.38;;;;;;;11.56;46.34;101193.34;4834173;29;20062;-80
2021/10/11 07:15:45;;;;;;;9.68;5.90;;;;;;;11.95;44.98;101191.88;4824837;29;20069;-79
2021/10/11 07:18:11;;;;;;;8.35;6.25;;;;;;;11.75;45.86;101189.16;4841844;29;20065;-80
2021/10/11 07:20:42;;;;;;;6.30;4.95;;;;;;;12.08;44.96;101185.22;4828124;29;20045;-79
2021/10/11 07:23:09;;;;;;;9.82;5.90;;;;;;;12.37;44.12;101184.91;4843902;29;20053;-79
2021/10/11 07:25:35;;;;;;;8.45;5.30;;;;;;;12.79;43.19;101181.44;4843275;29;20428;-80
2021/10/11 07:28:27;;;;;;;5.45;5.05;;;;;;;12.99;42.51;101179.66;4860640;29;20060;-80
2021/10/11 07:31:22;;;;;;;21.25;6.00;;;;;;;13.54;40.73;101172.00;4863791;29;20057;-83
2021/10/11 07:33:58;;;;;;;6.70;6.18;;;;;;;14.21;39.02;101172.25;4848742;29;20053;-81
2021/10/11 07:36:41;;;;;;;5.15;4.65;;;;;;;13.65;39.95;101167.06;4841965;29;20069;-79
2021/10/11 07:39:10;;;;;;;5.15;4.68;;;;;;;14.44;38.18;101166.75;4830600;29;20077;-80
2021/10/11 07:41:45;;;;;;;18.52;4.80;;;;;;;14.81;36.05;101149.13;4845371;29;20419;-83
2021/10/11 07:44:38;;;;;;;30.45;5.38;;;;;;;15.05;34.94;101142.59;4828322;29;20980;-80
2021/10/11 07:47:29;;;;;;;6.72;3.90;;;;;;;15.22;34.99;101145.16;4831949;29;20054;-83
2021/10/11 07:50:50;;;;;;;11.55;4.60;;;;;;;14.60;36.36;101162.44;4853532;29;20074;-83
2021/10/11 07:53:19;;;;;;;6.45;4.50;;;;;;;15.37;35.06;101154.91;4855616;29;20085;-80
2021/10/11 07:55:45;;;;;;;10.00;5.15;;;;;;;14.85;35.79;101151.53;4859609;29;20062;-83
2021/10/11 07:58:14;;;;;;;3.88;3.50;;;;;;;15.74;33.47;101142.38;4877927;29;20061;-84
2021/10/11 08:00:45;;;;;;;4.25;3.75;;;;;;;15.73;32.57;101149.44;4854108;29;20049;-84
2021/10/11 08:03:17;;;;;;;4.65;3.47;;;;;;;16.94;30.47;101142.38;4847179;29;20049;-83
2021/10/11 08:05:46;;;;;;;3.47;3.20;;;;;;;17.34;29.46;101138.09;4888063;29;20053;-84
2021/10/11 08:08:13;;;;;;;5.95;2.90;;;;;;;16.86;29.08;101133.19;4863305;29;20524;-79
2021/10/11 08:10:39;;;;;;;4.22;3.70;;;;;;;17.48;28.66;101130.16;4855144;29;20061;-77
2021/10/11 08:13:05;;;;;;;3.65;3.10;;;;;;;16.78;28.91;101138.09;4838710;29;20053;-77
2021/10/11 08:15:32;;;;;;;3.60;3.30;;;;;;;16.86;29.14;101130.56;4854724;29;20140;-77
2021/10/11 08:17:58;;;;;;;3.70;3.35;;;;;;;18.21;27.60;101125.47;4833935;29;20544;-78
2021/10/11 08:20:24;;;;;;;5.85;4.57;;;;;;;18.57;26.56;101123.03;4836927;29;20053;-77
2021/10/11 08:22:50;;;;;;;12.57;3.50;;;;;;;18.08;27.20;101108.72;4840372;29;20110;-76
2021/10/11 08:25:45;;;;;;;5.63;3.83;;;;;;;17.42;28.47;101124.44;4845048;29;20153;-84
2021/10/11 08:28:11;;;;;;;3.40;3.10;;;;;;;16.69;28.71;101121.03;4861111;29;20137;-81
2021/10/11 08:30:37;;;;;;;11.43;4.53;;;;;;;17.92;27.88;101118.59;4859802;29;20429;-81
2021/10/11 08:33:04;;;;;;;4.45;4.03;;;;;;;17.61;28.05;101120.56;4843478;29;20542;-81
2021/10/11 08:35:30;;;;;;;16.38;4.50;;;;;;;15.91;31.52;101114.16;4876406;29;20594;-81
2021/10/11 08:37:56;;;;;;;3.72;3.40;;;;;;;16.01;29.99;101112.69;4876524;29;20088;-80
2021/10/11 08:40:22;;;;;;;3.83;3.53;;;;;;;15.95;30.47;101114.84;4859714;29;20152;-81
2021/10/11 08:42:49;;;;;;;7.80;4.72;;;;;;;16.23;29.80;101117.56;4847560;29;20065;-78
2021/10/11 08:45:15;;;;;;;3.85;3.55;;;;;;;16.40;29.21;101101.63;4864155;29;20073;-82
2021/10/11 08:47:42;;;;;;;4.05;3.72;;;;;;;16.53;29.05;101113.16;4841461;29;20109;-79
2021/10/11 08:51:06;;;;;;;5.97;3.65;;;;;;;16.24;28.79;101107.88;4842578;29;20603;-84
2021/10/11 08:53:45;;;;;;;3.30;3.10;;;;;;;16.59;28.50;101097.00;4845948;29;20094;-81
2021/10/11 08:56:11;;;;;;;3.40;3.15;;;;;;;17.11;27.63;101093.84;4862353;29;20046;-83
2021/10/11 08:58:45;;;;;;;3.65;3.45;;;;;;;17.16;27.21;101091.75;4830700;29;20481;-82
2021/10/11 09:01:11;;;;;;;8.02;3.55;;;;;;;15.86;29.70;101089.88;4865194;29;20049;-83
2021/10/11 09:03:37;;;;;;;3.70;3.40;;;;;;;14.68;nan;101095.47;4847317;29;20049;-82
2021/10/11 09:06:05;;;;;;;4.43;4.03;;;;;;;13.67;33.34;101089.13;4830633;29;20077;-81
2021/10/11 09:08:31;;;;;;;3.15;2.95;;;;;;;13.55;33.28;101097.56;4860675;29;20053;-82
2021/10/11 09:10:59;;;;;;;2.42;2.33;;;;;;;13.73;33.13;101087.97;4862293;29;20117;-83
2021/10/11 09:13:28;;;;;;;3.13;2.92;;;;;;;13.55;33.23;101095.81;4865720;29;20056;-83
2021/10/11 09:16:13;;;;;;;2.70;2.55;;;;;;;13.55;34.04;101093.19;4880426;29;20067;-82
2021/10/11 09:18:48;;;;;;;2.65;2.47;;;;;;;13.50;34.11;101081.22;4878187;29;20139;-83
2021/10/11 09:21:14;;;;;;;2.47;2.35;;;;;;;13.31;34.23;101072.50;4878453;29;20056;-83
2021/10/11 09:23:40;;;;;;;2.38;2.28;;;;;;;13.46;34.82;101079.66;4883135;29;20045;-87
2021/10/11 09:26:17;;;;;;;4.35;3.17;;;;;;;13.48;34.85;101077.81;4868056;29;20486;-84
2021/10/11 09:28:51;;;;;;;3.63;3.33;;;;;;;13.39;34.85;101081.69;4860853;29;20057;-80
2021/10/11 09:31:17;;;;;;;2.28;2.17;;;;;;;13.56;34.32;101076.53;4862719;29;20057;-85
2021/10/11 09:33:43;;;;;;;3.40;2.70;;;;;;;13.32;34.07;101067.16;4889075;29;20048;-87
2021/10/11 09:36:09;;;;;;;3.00;2.80;;;;;;;13.34;34.46;101074.97;4874181;29;20065;-86
2021/10/11 09:38:35;;;;;;;4.30;2.88;;;;;;;13.68;33.84;101061.94;4880169;29;20060;-88
2021/10/11 09:41:02;;;;;;;2.15;2.05;;;;;;;13.49;33.54;101067.22;4884174;29;20033;-85
2021/10/11 09:43:31;;;;;;;3.33;3.13;;;;;;;13.51;34.25;101061.94;4855787;29;20030;-85
2021/10/11 09:46:12;;;;;;;3.60;2.17;;;;;;;13.29;34.50;101062.06;4856383;29;20056;-84
2021/10/11 09:48:51;;;;;;;2.97;2.78;;;;;;;13.32;34.74;101059.28;4851729;29;20053;-85
2021/10/11 09:51:21;;;;;;;2.35;2.15;;;;;;;13.21;34.59;101053.72;4847626;29;20057;-84
2021/10/11 09:53:47;;;;;;;2.65;2.45;;;;;;;13.38;33.99;101056.38;4868473;29;20049;-83
2021/10/11 09:56:14;;;;;;;2.80;2.63;;;;;;;13.33;33.86;101055.75;4848682;29;20489;-85
2021/10/11 09:58:39;;;;;;;3.95;3.53;;;;;;;13.47;33.93;101050.72;4861115;29;20048;-87
2021/10/11 10:01:06;;;;;;;3.10;2.90;;;;;;;13.56;33.78;101045.03;4873493;29;20065;-89
2021/10/11 10:03:34;;;;;;;2.30;2.20;;;;;;;13.66;33.92;101045.44;4853604;29;20136;-84
2021/10/11 10:06:00;;;;;;;12.27;3.28;;;;;;;13.51;33.74;101035.69;4871453;29;20067;-86
2021/10/11 10:08:26;;;;;;;2.53;2.42;;;;;;;13.61;33.70;101041.34;4853356;29;20053;-84
2021/10/11 10:10:58;;;;;;;2.42;2.33;;;;;;;13.57;33.61;101035.38;4870781;29;20058;-84
2021/10/11 10:13:25;;;;;;;2.25;2.13;;;;;;;13.48;33.70;101041.91;4858554;29;20064;-85
2021/10/11 10:15:57;;;;;;;3.25;2.95;;;;;;;13.26;33.42;101033.38;4860844;29;20059;-85
2021/10/11 10:18:23;;;;;;;2.20;2.03;;;;;;;13.07;33.85;101027.25;4859613;29;20116;-86
2021/10/11 10:20:58;;;;;;;4.15;2.30;;;;;;;13.29;34.16;101025.34;4855662;29;20071;-83
2021/10/11 10:23:30;;;;;;;3.80;3.42;;;;;;;13.40;33.77;101017.81;4839901;29;20045;-86
2021/10/11 10:25:57;;;;;;;2.67;2.50;;;;;;;13.44;33.04;101019.38;4853231;29;20057;-83
2021/10/11 10:28:24;;;;;;;3.15;2.40;;;;;;;13.43;32.95;101017.69;4868924;29;20131;-86
2021/10/11 10:31:00;;;;;;;2.35;2.25;;;;;;;13.60;32.65;101022.13;4875447;29;20053;-86
2021/10/11 10:33:38;;;;;;;2.60;2.40;;;;;;;13.59;32.28;101017.78;4861316;29;20245;-85
2021/10/11 10:36:18;;;;;;;3.47;3.25;;;;;;;13.57;32.71;101004.75;4846161;29;20054;-87
2021/10/11 10:38:44;;;;;;;6.55;2.50;;;;;;;13.61;32.90;100999.34;4877287;29;20068;-86
2021/10/11 10:41:18;;;;;;;4.65;2.47;;;;;;;13.51;32.86;101002.41;4828971;29;20056;-85
2021/10/11 10:43:44;;;;;;;2.60;2.50;;;;;;;13.60;32.40;101001.13;4871655;29;20053;-86
2021/10/11 10:46:10;;;;;;;3.22;2.40;;;;;;;13.67;32.44;101001.69;4856505;29;20060;-84
2021/10/11 10:48:45;;;;;;;2.38;2.17;;;;;;;13.53;32.45;101003.19;4869432;29;20048;-85
2021/10/11 10:51:11;;;;;;;3.08;2.78;;;;;;;13.63;33.23;100994.88;4852125;29;20106;-86
2021/10/11 10:53:39;;;;;;;2.92;2.70;;;;;;;13.61;32.46;100988.84;4851222;29;20054;-85
2021/10/11 10:56:11;;;;;;;2.10;2.00;;;;;;;13.55;32.51;100985.59;4855979;29;20584;-84
2021/10/11 10:58:37;;;;;;;2.63;2.42;;;;;;;13.44;32.80;100989.69;4860299;29;20145;-84
2021/10/11 11:01:03;;;;;;;1.95;1.85;;;;;;;13.49;32.84;100978.03;4827625;29;20186;-73
2021/10/11 11:03:30;;;;;;;3.88;2.72;;;;;;;13.49;31.83;100977.16;4840057;29;20124;-71
2021/10/11 11:05:55;;;;;;;3.05;2.85;;;;;;;13.43;32.06;100972.22;4851532;29;20064;-72
2021/10/11 11:08:26;;;;;;;3.45;2.78;;;;;;;13.38;32.34;100964.56;4856924;29;20148;-72
2021/10/11 11:10:52;;;;;;;;;;;;;;;13.31;32.22;100971.06;4857121;29;20065;-72
2021/10/11 11:13:18;;;;;;;2.45;2.30;;;;;;;13.46;31.45;100962.44;4859074;29;19979;-71
2021/10/11 11:15:49;;;;;;;2.72;2.53;;;;;;;13.33;31.67;100961.34;4839234;29;20543;-72
2021/10/11 11:18:18;;;;;;;6.05;2.25;;;;;;;13.33;32.31;100953.47;4858525;29;20132;-73
2021/10/11 11:20:44;;;;;;;2.17;2.08;;;;;;;13.37;32.03;100957.66;4859060;29;20523;-71
2021/10/11 11:23:12;;;;;;;2.50;2.33;;;;;;;13.51;31.34;100955.19;4858563;29;20088;-72
2021/10/11 11:25:40;;;;;;;2.17;2.08;;;;;;;13.52;31.47;100958.66;4858901;29;20053;-72
2021/10/11 11:28:09;;;;;;;2.42;2.25;;;;;;;13.47;31.63;100955.41;4858757;29;20129;-72
2021/10/11 11:30:35;;;;;;;2.67;2.28;;;;;;;13.46;31.24;100945.84;4858402;29;20057;-73
2021/10/11 11:33:10;;;;;;;2.67;2.55;;;;;;;13.52;31.66;100941.16;4858785;29;20053;-73